createdAt,value
2016-12-04T10:15:45.225Z,43.32
2016-12-04T10:17:00.074Z,43.04
2016-12-04T10:18:16.965Z,43.04
2016-12-04T10:19:31.485Z,42.66
2016-12-04T10:20:41.817Z,42.94
2016-12-04T10:21:57.556Z,43.54
2016-12-04T10:23:13.580Z,44.85
2016-12-04T10:24:29.985Z,43.99
2016-12-04T10:25:44.684Z,42.85
2016-12-04T10:26:59.937Z,43.99
2016-12-04T10:28:14.329Z,44.46
2016-12-04T10:29:30.594Z,44.66
2016-12-04T10:30:47.460Z,43.23
2016-12-04T10:32:04.448Z,42.94
2016-12-04T10:33:17.986Z,42.37
2016-12-04T10:34:31.018Z,43.23
2016-12-04T10:35:45.813Z,43.97
2016-12-04T10:36:58.664Z,45.85
2016-12-04T10:38:13.620Z,46.23
2016-12-04T10:39:26.818Z,46.2
2016-12-04T10:40:39.939Z,47.63
2016-12-04T10:41:54.816Z,48.37
2016-12-04T10:43:10.146Z,49.41
2016-12-04T10:44:24.744Z,50.84
2016-12-04T10:45:41.490Z,50.72
2016-12-04T10:46:58.244Z,51.67
2016-12-04T10:48:14.032Z,52.14
2016-12-04T10:49:29.522Z,52.97
2016-12-04T10:50:41.442Z,54.02
2016-12-04T10:51:57.792Z,54.27
2016-12-04T10:53:14.170Z,55.13
2016-12-04T10:54:29.299Z,54.85
2016-12-04T10:55:42.851Z,55.96
2016-12-04T10:56:59.218Z,57.38
2016-12-04T10:58:15.235Z,58.04
2016-12-04T10:59:30.343Z,58.58
2016-12-04T11:00:45.021Z,58.96
2016-12-04T11:02:01.673Z,59.44
2016-12-04T11:03:14.175Z,60.76
2016-12-04T11:04:30.639Z,61.24
2016-12-04T11:05:47.502Z,61.58
2016-12-04T11:07:01.178Z,62.15
2016-12-04T11:08:16.046Z,63.01
2016-12-04T11:09:30.747Z,64.04
2016-12-04T11:10:43.899Z,64.58
2016-12-04T11:11:59.302Z,64.96
2016-12-04T11:13:13.011Z,64.68
2016-12-04T11:14:28.300Z,64.87
2016-12-04T11:15:43.555Z,65.15
2016-12-04T11:17:00.014Z,65.72
2016-12-04T11:18:16.333Z,66.28
2016-12-04T11:19:33.121Z,66.38
2016-12-04T11:20:50.429Z,66.95
2016-12-04T11:22:06.327Z,67.8
2016-12-04T11:23:21.012Z,67.71
2016-12-04T11:24:34.183Z,67.14
2016-12-04T11:25:49.947Z,67.05
2016-12-04T11:27:05.397Z,66.86
2016-12-04T11:28:20.882Z,66.38
2016-12-04T11:29:35.467Z,66.38
2016-12-04T11:30:52.686Z,65.72
2016-12-04T11:32:08.134Z,65.31
2016-12-04T11:33:21.206Z,65.21
2016-12-04T11:34:38.070Z,66.25
2016-12-04T11:35:52.476Z,66.95
2016-12-04T11:37:05.873Z,67.49
2016-12-04T11:38:21.997Z,68.05
2016-12-04T11:39:37.912Z,68.52
2016-12-04T11:40:52.218Z,67.58
2016-12-04T11:42:07.278Z,66.76
2016-12-04T11:43:20.670Z,66.92
2016-12-04T11:44:36.655Z,66.82
2016-12-04T11:45:51.488Z,66.92
2016-12-04T11:47:07.378Z,66.35
2016-12-04T11:48:23.464Z,65.78
2016-12-04T11:49:38.944Z,65.59
2016-12-04T11:50:54.039Z,66.35
2016-12-04T11:52:08.638Z,66.25
2016-12-04T11:53:24.291Z,66.53
2016-12-04T11:54:39.026Z,66.44
2016-12-04T11:55:55.354Z,65.88
2016-12-04T11:57:11.980Z,65.5
2016-12-04T11:58:26.293Z,65.21
2016-12-04T11:59:42.680Z,65.12
2016-12-04T12:00:58.231Z,65.78
2016-12-04T12:02:13.032Z,65.78
2016-12-04T12:03:27.919Z,65.78
2016-12-04T12:04:43.086Z,65.78
2016-12-04T12:05:58.732Z,65.31
2016-12-04T12:07:12.642Z,65.81
2016-12-04T12:08:28.549Z,65.81
2016-12-04T12:09:42.144Z,65.5
2016-12-04T12:10:58.939Z,65.72
2016-12-04T12:12:15.252Z,66
2016-12-04T12:13:31.596Z,66.19
2016-12-04T12:14:46.871Z,65.63
2016-12-04T12:16:02.794Z,65.91
2016-12-04T12:17:18.324Z,66
2016-12-04T12:18:32.307Z,65.34
2016-12-04T12:19:48.887Z,65.72
2016-12-04T12:21:04.640Z,65.72
2016-12-04T12:22:19.570Z,65.53
2016-12-04T12:23:36.208Z,65.91
2016-12-04T12:24:51.322Z,65.15
2016-12-04T12:26:06.995Z,65.15
2016-12-04T12:27:21.907Z,65.53
2016-12-04T12:28:38.124Z,65.63
2016-12-04T12:29:54.205Z,65.25
2016-12-04T12:31:10.622Z,65.53
2016-12-04T12:32:27.126Z,64.77
2016-12-04T12:33:42.096Z,64.68
2016-12-04T12:34:55.679Z,64.49
2016-12-04T12:36:11.558Z,63.73
2016-12-04T12:37:26.098Z,62.69
2016-12-04T12:38:42.530Z,62.78
2016-12-04T12:39:58.875Z,62.88
2016-12-04T12:41:13.725Z,62.69
2016-12-04T12:42:28.328Z,62.88
2016-12-04T12:43:44.244Z,63.16
2016-12-04T12:44:57.616Z,63.45
2016-12-04T12:46:14.012Z,63.82
2016-12-04T12:47:30.410Z,63.82
2016-12-04T12:48:45.342Z,63.73
2016-12-04T12:50:02.259Z,63.73
2016-12-04T12:51:17.279Z,63.92
2016-12-04T12:52:30.594Z,63.82
2016-12-04T12:53:45.370Z,64.11
2016-12-04T12:54:59.056Z,63.54
2016-12-04T12:56:14.801Z,64.11
2016-12-04T12:57:31.302Z,63.82
2016-12-04T12:58:46.141Z,64.11
2016-12-04T13:00:00.757Z,64.39
2016-12-04T13:01:16.730Z,64.3
2016-12-04T13:02:33.096Z,64.01
2016-12-04T13:03:49.677Z,64.2
2016-12-04T13:05:06.200Z,64.39
2016-12-04T13:06:23.107Z,64.39
2016-12-04T13:07:37.816Z,64.58
2016-12-04T13:08:53.455Z,64.58
2016-12-04T13:10:07.650Z,64.68
2016-12-04T13:11:21.908Z,64.96
2016-12-04T13:12:36.568Z,64.68
2016-12-04T13:13:51.500Z,65.25
2016-12-04T13:15:06.276Z,64.49
2016-12-04T13:16:22.897Z,63.92
2016-12-04T13:17:38.710Z,64.01
2016-12-04T13:18:54.373Z,63.64
2016-12-04T13:20:10.914Z,63.82
2016-12-04T13:21:25.349Z,64.2
2016-12-04T13:22:40.268Z,64.58
2016-12-04T13:23:55.231Z,64.39
2016-12-04T13:25:09.424Z,63.54
2016-12-04T13:26:25.509Z,63.64
2016-12-04T13:27:41.768Z,64.11
2016-12-04T13:28:57.555Z,64.01
2016-12-04T13:30:14.270Z,64.11
2016-12-04T13:31:28.711Z,63.82
2016-12-04T13:32:44.441Z,63.26
2016-12-04T13:33:59.313Z,63.26
2016-12-04T13:35:13.839Z,62.59
2016-12-04T13:36:26.819Z,62.78
2016-12-04T13:37:42.039Z,62.88
2016-12-04T13:38:56.749Z,62.69
2016-12-04T13:40:11.796Z,62.31
2016-12-04T13:41:28.476Z,62.4
2016-12-04T13:42:45.265Z,62.69
2016-12-04T13:44:02.332Z,62.97
2016-12-04T13:45:14.014Z,63.07
2016-12-04T13:46:30.551Z,62.88
2016-12-04T13:47:43.616Z,62.97
2016-12-04T13:49:00.068Z,62.88
2016-12-04T13:50:13.583Z,63.16
2016-12-04T13:51:29.944Z,62.78
2016-12-04T13:52:44.469Z,63.16
2016-12-04T13:54:00.380Z,63.16
2016-12-04T13:55:14.261Z,63.07
2016-12-04T13:56:30.438Z,63.26
2016-12-04T13:57:46.765Z,63.54
2016-12-04T13:59:00.176Z,63.64
2016-12-04T14:00:16.751Z,63.82
2016-12-04T14:01:32.255Z,63.64
2016-12-04T14:02:47.374Z,63.54
2016-12-04T14:04:01.025Z,63.73
2016-12-04T14:05:15.896Z,63.64
2016-12-04T14:06:27.983Z,62.97
2016-12-04T14:07:42.629Z,62.97
2016-12-04T14:08:58.859Z,62.88
2016-12-04T14:10:13.922Z,62.88
2016-12-04T14:11:29.171Z,62.97
2016-12-04T14:12:42.680Z,63.26
